Decoded Metar for KTVR (TALLULAH/VICKSBU in LA, USA) (IATA:TVR) | Meteo·Mobile Aviation Weather
aviador You're here:

KTVR Decoded Metar

TALLULAH/VICKSBU in LA, USA
Report Time2019-07-23 02:53:00
UTC Time2019-07-23 03:58:36
Flight Rules vfr VFR
WindCalm
Visibility9999 m
Phenomena:N/A
Clouds:Scattered 043 Hf
Broken 060 Hf
Broken 100 Hf
Ceiling6,000 ft
Temp24°C (ISA +9)
Dew Point24°C (100% RH)
QNH1015 hPa
Density Alt1,473 ft
Elevation85 ft
Report Wrong Elevation
Raw Report
KTVR 230253Z AUTO 00000KT 10SM SCT043 BKN060 BKN100 24/24 A2996
RMK AO2 LTG DSNT E AND NW RAE30 TSB0156E15 SLP152 P0001 60092
T02440239 51004=

Extra information for KTVR:More info

Metar Taf Metar & Taf Last 4 Metars F.Rules Stats Wind Profile Meteogram Temp Stats Airport Information Weather charts Add Link Nearby VenuesMetar ALERT Operation Metar Decoded Social comments

AIRNAV info for KTVR